Station Historical Data
Daily Summary for January 5, 2017 Units:  English    Metric   Both
Next Day »
Daily Weekly Monthly Yearly Custom
  High: Low: Average:
Temperature: 41.6 °F 31.3 °F 36.3 °F
Dew Point: 40.8 °F 28.2 °F 35 °F
Humidity: 97% 87% 95%
Wind Speed: 15.0mph 0.0mph 1mph
Wind Gust: 19.0mph - -
Wind- - SE
Pressure: 30.14 in 29.95 in -
Precipitation: 0.00 in    
Historical Graphs
 
 
Tabular Data for January 5, 2017
Time Temperature Dew Point Pressure Wind Wind Speed Wind Gust Humidity Rainfall Rate (Hourly) solar Conditions
00:01 41.6 °F 40.8 °F 29.97 in Calm     97% 0.00 in 0.00 W/m2
00:06 41.6 °F 40.8 °F 29.97 in Calm     97% 0.00 in 0.00 W/m2
00:11 41.6 °F 40.8 °F 29.97 in Calm     97% 0.00 in 0.00 W/m2
00:16 41.6 °F 40.8 °F 29.97 in Calm     97% 0.00 in 0.00 W/m2
00:21 41.6 °F 40.8 °F 29.97 in Calm     97% 0.00 in 0.00 W/m2
00:26 41.6 °F 40.8 °F 29.97 in Calm     97% 0.00 in 0.00 W/m2
00:31 41.6 °F 40.8 °F 29.97 in Calm     97% 0.00 in 0.00 W/m2
00:36 41.6 °F 40.8 °F 29.97 in Calm     97% 0.00 in 0.00 W/m2
00:41 41.6 °F 40.8 °F 29.97 in Calm     97% 0.00 in 0.00 W/m2
00:46 41.6 °F 40.8 °F 29.97 in Calm     97% 0.00 in 0.00 W/m2
00:51 41.6 °F 40.8 °F 29.97 in Calm     97% 0.00 in 0.00 W/m2
00:56 41.5 °F 40.7 °F 29.96 in Calm     97% 0.00 in 0.00 W/m2
01:01 41.5 °F 40.7 °F 29.96 in Calm     97% 0.00 in 0.00 W/m2
01:06 41.5 °F 40.7 °F 29.96 in Calm   1.0 mph 97% 0.00 in 0.00 W/m2
01:11 41.4 °F 40.6 °F 29.96 in Calm   1.0 mph 97% 0.00 in 0.00 W/m2
01:16 41.4 °F 40.6 °F 29.95 in Calm   1.0 mph 97% 0.00 in 0.00 W/m2
01:21 41.3 °F 40.5 °F 29.95 in Calm   1.0 mph 97% 0.00 in 0.00 W/m2
01:27 41.2 °F 40.4 °F 29.96 in SE 1.0 mph 1.0 mph 97% 0.00 in 0.00 W/m2
01:32 41.2 °F 40.4 °F 29.95 in Calm   1.0 mph 97% 0.00 in 0.00 W/m2
01:37 41.1 °F 40.3 °F 29.96 in SE 1.0 mph 1.0 mph 97% 0.00 in 0.00 W/m2
01:42 41.1 °F 40.3 °F 29.96 in Calm   1.0 mph 97% 0.00 in 0.00 W/m2
01:47 41.1 °F 40.3 °F 29.96 in Calm   1.0 mph 97% 0.00 in 0.00 W/m2
01:52 41.1 °F 40.3 °F 29.96 in Calm   1.0 mph 97% 0.00 in 0.00 W/m2
01:57 41.1 °F 40.3 °F 29.97 in Calm   1.0 mph 97% 0.00 in 0.00 W/m2
02:02 41.0 °F 40.2 °F 29.97 in South 1.0 mph 1.0 mph 97% 0.00 in 0.00 W/m2
02:07 41.0 °F 40.2 °F 29.97 in Calm   1.0 mph 97% 0.00 in 0.00 W/m2
02:12 41.0 °F 40.2 °F 29.97 in Calm   1.0 mph 97% 0.00 in 0.00 W/m2
02:17 41.0 °F 40.2 °F 29.97 in Calm   1.0 mph 97% 0.00 in 0.00 W/m2
02:22 40.9 °F 40.1 °F 29.98 in Calm   1.0 mph 97% 0.00 in 0.00 W/m2
02:27 40.9 °F 40.1 °F 29.97 in Calm   1.0 mph 97% 0.00 in 0.00 W/m2
02:32 40.9 °F 40.1 °F 29.97 in Calm   1.0 mph 97% 0.00 in 0.00 W/m2
02:37 40.8 °F 40.0 °F 29.97 in Calm     97% 0.00 in 0.00 W/m2
02:42 40.7 °F 39.9 °F 29.97 in Calm     97% 0.00 in 0.00 W/m2
02:47 40.7 °F 39.9 °F 29.97 in Calm     97% 0.00 in 0.00 W/m2
02:52 40.7 °F 39.9 °F 29.97 in Calm     97% 0.00 in 0.00 W/m2
02:57 40.6 °F 39.8 °F 29.97 in Calm     97% 0.00 in 0.00 W/m2
03:02 40.6 °F 39.8 °F 29.96 in Calm     97% 0.00 in 0.00 W/m2
03:07 40.6 °F 39.8 °F 29.96 in South 5.0 mph 9.0 mph 97% 0.00 in 0.00 W/m2
03:12 40.5 °F 39.7 °F 29.96 in Calm   1.0 mph 97% 0.00 in 0.00 W/m2
03:17 40.5 °F 39.7 °F 29.96 in Calm     97% 0.00 in 0.00 W/m2
03:22 40.5 °F 39.7 °F 29.96 in Calm     97% 0.00 in 0.00 W/m2
03:27 40.5 °F 39.7 °F 29.96 in Calm     97% 0.00 in 0.00 W/m2
03:32 40.5 °F 39.7 °F 29.95 in Calm     97% 0.00 in 0.00 W/m2
03:37 40.5 °F 39.7 °F 29.96 in Calm   1.0 mph 97% 0.00 in 0.00 W/m2
03:42 40.5 °F 39.7 °F 29.96 in Calm   1.0 mph 97% 0.00 in 0.00 W/m2
03:47 40.5 °F 39.7 °F 29.95 in Calm   1.0 mph 97% 0.00 in 0.00 W/m2
03:53 40.5 °F 39.7 °F 29.95 in SSW 1.0 mph 4.0 mph 97% 0.00 in 0.00 W/m2
03:57 40.5 °F 39.7 °F 29.95 in Calm   1.0 mph 97% 0.00 in 0.00 W/m2
04:02 40.6 °F 39.8 °F 29.95 in Calm   1.0 mph 97% 0.00 in 0.00 W/m2
04:07 40.6 °F 39.8 °F 29.95 in Calm   1.0 mph 97% 0.00 in 0.00 W/m2
04:12 40.4 °F 39.6 °F 29.95 in Calm   1.0 mph 97% 0.00 in 0.00 W/m2
04:17 40.3 °F 39.5 °F 29.95 in Calm   1.0 mph 97% 0.00 in 0.00 W/m2
04:22 40.2 °F 39.4 °F 29.95 in Calm     97% 0.00 in 0.00 W/m2
04:28 40.0 °F 39.2 °F 29.95 in Calm     97% 0.00 in 0.00 W/m2
04:33 39.8 °F 38.8 °F 29.95 in Calm     96% 0.00 in 0.00 W/m2
04:38 39.6 °F 38.6 °F 29.96 in Calm     96% 0.00 in 0.00 W/m2
04:43 39.2 °F 38.2 °F 29.96 in Calm   1.0 mph 96% 0.00 in 0.00 W/m2
04:48 39.0 °F 38.0 °F 29.96 in Calm     96% 0.00 in 0.00 W/m2
04:53 38.9 °F 37.9 °F 29.96 in Calm     96% 0.00 in 0.00 W/m2
04:58 38.8 °F 37.8 °F 29.96 in Calm   1.0 mph 96% 0.00 in 0.00 W/m2
05:03 38.7 °F 37.7 °F 29.96 in Calm     96% 0.00 in 0.00 W/m2
05:08 38.6 °F 37.6 °F 29.96 in Calm   1.0 mph 96% 0.00 in 0.00 W/m2
05:13 38.5 °F 37.5 °F 29.96 in Calm     96% 0.00 in 0.00 W/m2
05:18 38.4 °F 37.4 °F 29.96 in Calm   1.0 mph 96% 0.00 in 0.00 W/m2
05:23 38.3 °F 37.3 °F 29.96 in Calm     96% 0.00 in 0.00 W/m2
05:28 38.2 °F 37.2 °F 29.96 in Calm   1.0 mph 96% 0.00 in 0.00 W/m2
05:33 38.1 °F 37.1 °F 29.97 in Calm   1.0 mph 96% 0.00 in 0.00 W/m2
05:38 38.0 °F 37.0 °F 29.97 in Calm     96% 0.00 in 0.00 W/m2
05:43 37.8 °F 36.8 °F 29.96 in Calm   1.0 mph 96% 0.00 in 0.00 W/m2
05:48 37.7 °F 36.7 °F 29.97 in Calm   9.0 mph 96% 0.00 in 0.00 W/m2
05:53 37.6 °F 36.6 °F 29.97 in Calm   1.0 mph 96% 0.00 in 0.00 W/m2
05:58 37.5 °F 36.5 °F 29.97 in Calm     96% 0.00 in 0.00 W/m2
06:03 37.5 °F 36.5 °F 29.97 in Calm   1.0 mph 96% 0.00 in 0.00 W/m2
06:08 37.4 °F 36.4 °F 29.97 in Calm     96% 0.00 in 0.00 W/m2
06:13 37.3 °F 36.3 °F 29.97 in West 3.0 mph 8.0 mph 96% 0.00 in 0.00 W/m2
06:18 37.2 °F 36.2 °F 29.97 in Calm   1.0 mph 96% 0.00 in 0.00 W/m2
06:23 37.1 °F 36.1 °F 29.98 in Calm     96% 0.00 in 0.00 W/m2
06:28 37.0 °F 36.0 °F 29.98 in Calm     96% 0.00 in 0.00 W/m2
06:33 36.9 °F 35.9 °F 29.98 in Calm     96% 0.00 in 0.00 W/m2
06:38 36.8 °F 35.8 °F 29.98 in Calm     96% 0.00 in 0.00 W/m2
06:43 36.8 °F 35.8 °F 29.98 in Calm     96% 0.00 in 0.00 W/m2
06:48 36.8 °F 35.8 °F 29.98 in Calm     96% 0.00 in 0.00 W/m2
06:53 36.8 °F 35.8 °F 29.98 in Calm     96% 0.00 in 0.00 W/m2
06:58 36.7 °F 35.7 °F 29.98 in Calm     96% 0.00 in 0.00 W/m2
07:03 36.6 °F 35.6 °F 29.98 in Calm     96% 0.00 in 0.00 W/m2
07:08 36.4 °F 35.4 °F 29.99 in Calm     96% 0.00 in 0.00 W/m2
07:13 36.2 °F 35.2 °F 29.99 in Calm     96% 0.00 in 0.00 W/m2
07:18 36.0 °F 35.0 °F 29.99 in Calm     96% 0.00 in 0.00 W/m2
07:23 35.9 °F 34.9 °F 29.99 in Calm     96% 0.00 in 5.00 W/m2
07:28 35.8 °F 34.8 °F 29.99 in Calm     96% 0.00 in 5.00 W/m2
07:33 35.6 °F 34.6 °F 29.99 in Calm     96% 0.00 in 5.00 W/m2
07:39 35.6 °F 34.6 °F 30.00 in Calm     96% 0.00 in 5.00 W/m2
07:44 35.5 °F 34.5 °F 30.00 in Calm     96% 0.00 in 5.00 W/m2
07:49 35.5 °F 34.5 °F 30.00 in Calm     96% 0.00 in 7.00 W/m2
07:54 35.4 °F 34.4 °F 30.00 in Calm     96% 0.00 in 9.00 W/m2
07:59 35.3 °F 34.3 °F 30.00 in Calm     96% 0.00 in 18.00 W/m2
08:04 35.3 °F 34.3 °F 30.00 in Calm     96% 0.00 in 14.00 W/m2
08:09 35.3 °F 34.3 °F 30.00 in Calm     96% 0.00 in 37.00 W/m2
08:14 35.4 °F 34.4 °F 30.00 in Calm     96% 0.00 in 28.00 W/m2
08:19 35.4 °F 34.4 °F 30.00 in Calm     96% 0.00 in 42.00 W/m2
08:24 35.5 °F 34.5 °F 30.00 in Calm     96% 0.00 in 60.00 W/m2
08:29 35.5 °F 34.5 °F 30.01 in Calm     96% 0.00 in 53.00 W/m2
08:34 35.5 °F 34.5 °F 30.01 in Calm     96% 0.00 in 51.00 W/m2
08:39 35.5 °F 34.5 °F 30.01 in Calm     96% 0.00 in 72.00 W/m2
08:44 35.4 °F 34.4 °F 30.02 in Calm     96% 0.00 in 67.00 W/m2
08:49 35.3 °F 34.3 °F 30.02 in Calm     96% 0.00 in 81.00 W/m2
08:54 35.3 °F 34.3 °F 30.02 in Calm     96% 0.00 in 63.00 W/m2
08:59 35.3 °F 34.3 °F 30.02 in Calm     96% 0.00 in 63.00 W/m2
09:04 35.4 °F 34.4 °F 30.02 in Calm     96% 0.00 in 76.00 W/m2
09:09 35.4 °F 34.4 °F 30.03 in Calm     96% 0.00 in 84.00 W/m2
09:14 35.4 °F 34.4 °F 30.03 in Calm     96% 0.00 in 107.00 W/m2
09:19 35.5 °F 34.5 °F 30.03 in Calm     96% 0.00 in 197.00 W/m2
09:24 35.6 °F 34.6 °F 30.03 in Calm     96% 0.00 in 174.00 W/m2
09:29 35.6 °F 34.6 °F 30.04 in Calm     96% 0.00 in 200.00 W/m2
09:34 35.6 °F 34.6 °F 30.04 in Calm     96% 0.00 in 244.00 W/m2
09:39 35.6 °F 34.6 °F 30.04 in Calm     96% 0.00 in 265.00 W/m2
09:44 35.7 °F 34.7 °F 30.05 in Calm     96% 0.00 in 144.00 W/m2
09:49 35.8 °F 35.0 °F 30.05 in Calm     97% 0.00 in 123.00 W/m2
09:54 35.9 °F 35.1 °F 30.05 in Calm     97% 0.00 in 311.00 W/m2
09:59 35.8 °F 34.8 °F 30.06 in Calm     96% 0.00 in 163.00 W/m2
10:04 35.8 °F 35.0 °F 30.05 in Calm     97% 0.00 in 359.00 W/m2
10:09 35.9 °F 35.1 °F 30.06 in Calm     97% 0.00 in 584.00 W/m2
10:14 36.0 °F 35.2 °F 30.05 in Calm     97% 0.00 in 605.00 W/m2
10:19 36.2 °F 35.4 °F 30.05 in Calm     97% 0.00 in 610.00 W/m2
10:24 36.3 °F 35.5 °F 30.05 in SSE 1.0 mph 1.0 mph 97% 0.00 in 216.00 W/m2
10:29 36.5 °F 35.7 °F 30.05 in Calm   1.0 mph 97% 0.00 in 497.00 W/m2
10:34 36.5 °F 35.7 °F 30.05 in SSE 1.0 mph 1.0 mph 97% 0.00 in 497.00 W/m2
10:39 36.3 °F 35.5 °F 30.05 in Calm   2.0 mph 97% 0.00 in 417.00 W/m2
10:44 36.2 °F 35.4 °F 30.05 in SSE 1.0 mph 1.0 mph 97% 0.00 in 88.00 W/m2
10:49 36.2 °F 35.4 °F 30.05 in Calm   1.0 mph 97% 0.00 in 568.00 W/m2
10:54 36.1 °F 35.3 °F 30.05 in Calm   1.0 mph 97% 0.00 in 171.00 W/m2
10:55 36.1 °F 35.3 °F 30.05 in Calm   1.0 mph 97% 0.00 in 171.00 W/m2
11:00 36.1 °F 35.3 °F 30.05 in SSE 1.0 mph 1.0 mph 97% 0.00 in 183.00 W/m2
11:05 36.1 °F 35.3 °F 30.04 in Calm   1.0 mph 97% 0.00 in 603.00 W/m2
11:10 36.1 °F 35.3 °F 30.04 in Calm   1.0 mph 97% 0.00 in 619.00 W/m2
11:15 36.1 °F 35.3 °F 30.04 in Calm   2.0 mph 97% 0.00 in 693.00 W/m2
11:20 36.2 °F 35.4 °F 30.04 in Calm   9.0 mph 97% 0.00 in 657.00 W/m2
11:25 36.4 °F 35.6 °F 30.04 in Calm   2.0 mph 97% 0.00 in 615.00 W/m2
11:30 36.4 °F 35.6 °F 30.04 in Calm   1.0 mph 97% 0.00 in 246.00 W/m2
11:35 36.4 °F 35.6 °F 30.04 in Calm   1.0 mph 97% 0.00 in 684.00 W/m2
11:40 36.6 °F 35.8 °F 30.03 in Calm   1.0 mph 97% 0.00 in 649.00 W/m2
11:45 36.7 °F 35.9 °F 30.03 in SSE 1.0 mph 1.0 mph 97% 0.00 in 693.00 W/m2
11:50 36.7 °F 35.9 °F 30.03 in Calm   1.0 mph 97% 0.00 in 149.00 W/m2
11:55 36.6 °F 35.8 °F 30.03 in Calm   1.0 mph 97% 0.00 in 633.00 W/m2
12:00 36.7 °F 35.9 °F 30.03 in Calm     97% 0.00 in 237.00 W/m2
12:05 36.7 °F 35.9 °F 30.04 in Calm     97% 0.00 in 227.00 W/m2
12:10 36.3 °F 35.3 °F 30.04 in Calm   1.0 mph 96% 0.00 in 735.00 W/m2
12:15 36.3 °F 35.3 °F 30.04 in Calm   1.0 mph 96% 0.00 in 766.00 W/m2
12:20 36.6 °F 35.6 °F 30.04 in Calm   1.0 mph 96% 0.00 in 271.00 W/m2
12:25 36.6 °F 35.6 °F 30.04 in Calm   1.0 mph 96% 0.00 in 339.00 W/m2
12:30 36.7 °F 35.7 °F 30.04 in Calm   1.0 mph 96% 0.00 in 160.00 W/m2
12:35 36.8 °F 35.8 °F 30.04 in Calm   1.0 mph 96% 0.00 in 169.00 W/m2
12:40 36.6 °F 35.6 °F 30.03 in Calm   1.0 mph 96% 0.00 in 322.00 W/m2
12:45 36.6 °F 35.6 °F 30.03 in Calm   1.0 mph 96% 0.00 in 708.00 W/m2
12:50 36.9 °F 35.9 °F 30.03 in WSW 1.0 mph 7.0 mph 96% 0.00 in 265.00 W/m2
12:55 37.1 °F 36.1 °F 30.04 in Calm   1.0 mph 96% 0.00 in 297.00 W/m2
13:00 37.2 °F 36.2 °F 30.03 in West 1.0 mph 1.0 mph 96% 0.00 in 664.00 W/m2
13:05 37.0 °F 35.4 °F 30.03 in Calm   1.0 mph 94% 0.00 in 684.00 W/m2
13:10 37.1 °F 35.3 °F 30.03 in SW 1.0 mph 2.0 mph 93% 0.00 in 650.00 W/m2
13:16 37.3 °F 35.7 °F 30.03 in SW 1.0 mph 2.0 mph 94% 0.00 in 605.00 W/m2
13:21 37.4 °F 35.6 °F 30.03 in Calm   1.0 mph 93% 0.00 in 120.00 W/m2
13:26 37.5 °F 35.4 °F 30.03 in Calm   1.0 mph 92% 0.00 in 107.00 W/m2
13:31 37.5 °F 35.4 °F 30.03 in Calm   1.0 mph 92% 0.00 in 95.00 W/m2
13:36 37.4 °F 35.0 °F 30.03 in Calm     91% 0.00 in 132.00 W/m2
13:41 37.3 °F 34.9 °F 30.03 in Calm   1.0 mph 91% 0.00 in 155.00 W/m2
13:46 37.1 °F 34.4 °F 30.03 in Calm   1.0 mph 90% 0.00 in 148.00 W/m2
13:51 37.0 °F 34.6 °F 30.04 in Calm   1.0 mph 91% 0.00 in 121.00 W/m2
13:56 36.9 °F 34.5 °F 30.04 in Calm     91% 0.00 in 144.00 W/m2
14:01 36.9 °F 34.8 °F 30.04 in Calm     92% 0.00 in 165.00 W/m2
14:06 36.9 °F 34.8 °F 30.04 in Calm     92% 0.00 in 571.00 W/m2
14:11 37.0 °F 34.9 °F 30.04 in Calm   1.0 mph 92% 0.00 in 197.00 W/m2
14:16 37.1 °F 35.3 °F 30.04 in Calm   1.0 mph 93% 0.00 in 218.00 W/m2
14:21 37.3 °F 35.5 °F 30.05 in Calm   1.0 mph 93% 0.00 in 218.00 W/m2
14:26 37.5 °F 35.7 °F 30.05 in Calm   1.0 mph 93% 0.00 in 253.00 W/m2
14:31 37.7 °F 35.9 °F 30.05 in Calm   1.0 mph 93% 0.00 in 547.00 W/m2
14:36 37.8 °F 35.7 °F 30.05 in Calm   1.0 mph 92% 0.00 in 234.00 W/m2
14:41 37.9 °F 35.5 °F 30.05 in Calm   1.0 mph 91% 0.00 in 160.00 W/m2
14:46 38.0 °F 35.6 °F 30.05 in Calm   1.0 mph 91% 0.00 in 169.00 W/m2
14:51 37.9 °F 35.8 °F 30.06 in West 1.0 mph 1.0 mph 92% 0.00 in 185.00 W/m2
14:56 37.8 °F 35.4 °F 30.06 in Calm   1.0 mph 91% 0.00 in 174.00 W/m2
15:01 37.8 °F 35.4 °F 30.06 in Calm   1.0 mph 91% 0.00 in 457.00 W/m2
15:06 37.8 °F 35.7 °F 30.06 in Calm   1.0 mph 92% 0.00 in 232.00 W/m2
15:11 37.8 °F 35.7 °F 30.06 in Calm   1.0 mph 92% 0.00 in 457.00 W/m2
15:16 37.8 °F 35.7 °F 30.06 in Calm   1.0 mph 92% 0.00 in 230.00 W/m2
15:21 37.8 °F 35.7 °F 30.06 in Calm   1.0 mph 92% 0.00 in 350.00 W/m2
15:26 37.8 °F 35.7 °F 30.06 in Calm   1.0 mph 92% 0.00 in 257.00 W/m2
15:31 37.6 °F 35.8 °F 30.07 in Calm   1.0 mph 93% 0.00 in 135.00 W/m2
15:36 37.4 °F 35.6 °F 30.07 in Calm   1.0 mph 93% 0.00 in 169.00 W/m2
15:41 37.3 °F 35.5 °F 30.07 in Calm   1.0 mph 93% 0.00 in 144.00 W/m2
15:46 37.2 °F 35.4 °F 30.07 in Calm   1.0 mph 93% 0.00 in 220.00 W/m2
15:51 37.1 °F 35.3 °F 30.08 in Calm   1.0 mph 93% 0.00 in 244.00 W/m2
15:56 37.1 °F 35.3 °F 30.08 in Calm   1.0 mph 93% 0.00 in 102.00 W/m2
16:01 37.1 °F 35.5 °F 30.08 in Calm   1.0 mph 94% 0.00 in 83.00 W/m2
16:06 37.0 °F 35.2 °F 30.08 in Calm     93% 0.00 in 69.00 W/m2
16:11 36.9 °F 35.1 °F 30.08 in Calm   1.0 mph 93% 0.00 in 63.00 W/m2
16:12 36.9 °F 35.1 °F 30.08 in Calm     93% 0.00 in 58.00 W/m2
16:17 36.8 °F 35.0 °F 30.08 in Calm     93% 0.00 in 67.00 W/m2
16:22 36.6 °F 34.8 °F 30.08 in Calm     93% 0.00 in 54.00 W/m2
16:27 36.4 °F 34.6 °F 30.08 in Calm   1.0 mph 93% 0.00 in 54.00 W/m2
16:32 36.2 °F 34.6 °F 30.09 in Calm     94% 0.00 in 32.00 W/m2
16:37 36.0 °F 34.4 °F 30.09 in Calm     94% 0.00 in 18.00 W/m2
16:42 35.8 °F 34.0 °F 30.09 in Calm     93% 0.00 in 14.00 W/m2
16:47 35.7 °F 34.2 °F 30.09 in Calm     94% 0.00 in 11.00 W/m2
16:52 35.6 °F 34.0 °F 30.09 in Calm     94% 0.00 in 9.00 W/m2
16:57 35.4 °F 33.8 °F 30.09 in Calm     94% 0.00 in 5.00 W/m2
17:02 35.3 °F 33.8 °F 30.09 in Calm     94% 0.00 in 0.00 W/m2
17:07 35.1 °F 33.5 °F 30.09 in Calm     94% 0.00 in 0.00 W/m2
17:12 34.9 °F 33.3 °F 30.09 in Calm     94% 0.00 in 0.00 W/m2
17:17 34.8 °F 33.2 °F 30.09 in Calm     94% 0.00 in 0.00 W/m2
17:22 34.6 °F 33.0 °F 30.09 in Calm     94% 0.00 in 0.00 W/m2
17:27 34.4 °F 32.9 °F 30.09 in Calm     94% 0.00 in 0.00 W/m2
17:32 34.3 °F 32.8 °F 30.09 in Calm     94% 0.00 in 0.00 W/m2
17:37 34.2 °F 32.7 °F 30.09 in Calm     94% 0.00 in 0.00 W/m2
17:42 34.0 °F 32.5 °F 30.09 in Calm     94% 0.00 in 0.00 W/m2
17:47 33.9 °F 32.4 °F 30.09 in Calm     94% 0.00 in 0.00 W/m2
17:52 33.8 °F 32.5 °F 30.09 in Calm     95% 0.00 in 0.00 W/m2
17:57 33.8 °F 32.5 °F 30.09 in Calm   1.0 mph 95% 0.00 in 0.00 W/m2
18:02 33.7 °F 32.4 °F 30.09 in Calm     95% 0.00 in 0.00 W/m2
18:07 33.7 °F 32.4 °F 30.10 in Calm     95% 0.00 in 0.00 W/m2
18:13 33.7 °F 32.4 °F 30.10 in Calm     95% 0.00 in 0.00 W/m2
18:18 33.7 °F 32.4 °F 30.10 in Calm     95% 0.00 in 0.00 W/m2
18:23 33.6 °F 32.3 °F 30.10 in Calm     95% 0.00 in 0.00 W/m2
18:28 33.6 °F 32.3 °F 30.09 in Calm     95% 0.00 in 0.00 W/m2
18:33 33.5 °F 32.2 °F 30.10 in Calm     95% 0.00 in 0.00 W/m2
18:38 33.5 °F 32.2 °F 30.10 in Calm     95% 0.00 in 0.00 W/m2
18:43 33.4 °F 32.1 °F 30.10 in Calm     95% 0.00 in 0.00 W/m2
18:48 33.3 °F 32.0 °F 30.09 in Calm     95% 0.00 in 0.00 W/m2
18:53 33.3 °F 32.0 °F 30.09 in Calm     95% 0.00 in 0.00 W/m2
18:58 33.3 °F 32.0 °F 30.09 in Calm     95% 0.00 in 0.00 W/m2
19:03 33.3 °F 32.0 °F 30.09 in Calm     95% 0.00 in 0.00 W/m2
19:08 33.3 °F 32.0 °F 30.10 in Calm     95% 0.00 in 0.00 W/m2
19:13 33.3 °F 32.0 °F 30.10 in Calm     95% 0.00 in 0.00 W/m2
19:18 33.3 °F 32.0 °F 30.10 in Calm     95% 0.00 in 0.00 W/m2
19:23 33.3 °F 32.0 °F 30.10 in Calm     95% 0.00 in 0.00 W/m2
19:28 33.3 °F 32.0 °F 30.10 in Calm     95% 0.00 in 0.00 W/m2
19:33 33.2 °F 31.9 °F 30.10 in Calm     95% 0.00 in 0.00 W/m2
19:38 33.2 °F 31.9 °F 30.10 in Calm     95% 0.00 in 0.00 W/m2
19:43 33.1 °F 31.8 °F 30.10 in Calm     95% 0.00 in 0.00 W/m2
19:48 33.0 °F 31.7 °F 30.10 in Calm     95% 0.00 in 0.00 W/m2
19:53 32.8 °F 31.5 °F 30.10 in Calm     95% 0.00 in 0.00 W/m2
19:58 32.6 °F 31.3 °F 30.10 in Calm     95% 0.00 in 0.00 W/m2
20:03 32.5 °F 31.2 °F 30.11 in Calm     95% 0.00 in 0.00 W/m2
20:08 32.4 °F 31.1 °F 30.10 in Calm     95% 0.00 in 0.00 W/m2
20:13 32.3 °F 31.0 °F 30.10 in Calm     95% 0.00 in 0.00 W/m2
20:18 32.2 °F 30.9 °F 30.10 in Calm     95% 0.00 in 0.00 W/m2
20:23 32.2 °F 30.9 °F 30.10 in Calm     95% 0.00 in 0.00 W/m2
20:28 32.2 °F 30.9 °F 30.10 in Calm     95% 0.00 in 0.00 W/m2
20:33 32.2 °F 30.9 °F 30.10 in Calm     95% 0.00 in 0.00 W/m2
20:38 32.1 °F 30.8 °F 30.10 in Calm     95% 0.00 in 0.00 W/m2
20:43 32.1 °F 30.8 °F 30.11 in Calm     95% 0.00 in 0.00 W/m2
20:48 32.0 °F 30.7 °F 30.11 in Calm     95% 0.00 in 0.00 W/m2
20:53 31.9 °F 30.6 °F 30.11 in Calm     95% 0.00 in 0.00 W/m2
20:58 31.8 °F 30.5 °F 30.11 in Calm     95% 0.00 in 0.00 W/m2
21:03 31.7 °F 30.4 °F 30.11 in Calm     95% 0.00 in 0.00 W/m2
21:08 31.6 °F 30.3 °F 30.11 in Calm     95% 0.00 in 0.00 W/m2
21:13 31.6 °F 30.3 °F 30.11 in East 15.0 mph 19.0 mph 95% 0.00 in 0.00 W/m2
21:18 31.5 °F 30.2 °F 30.11 in East 7.0 mph 16.0 mph 95% 0.00 in 0.00 W/m2
21:23 31.5 °F 30.2 °F 30.12 in Calm   13.0 mph 95% 0.00 in 0.00 W/m2
21:28 31.5 °F 30.2 °F 30.12 in East 5.0 mph 13.0 mph 95% 0.00 in 0.00 W/m2
21:33 31.5 °F 30.2 °F 30.12 in Calm   15.0 mph 95% 0.00 in 0.00 W/m2
21:38 31.5 °F 30.2 °F 30.12 in East 13.0 mph 13.0 mph 95% 0.00 in 0.00 W/m2
21:43 31.4 °F 29.9 °F 30.12 in East 8.0 mph 14.0 mph 94% 0.00 in 0.00 W/m2
21:48 31.4 °F 29.9 °F 30.12 in Calm   13.0 mph 94% 0.00 in 0.00 W/m2
21:53 31.4 °F 29.9 °F 30.12 in East 9.0 mph 16.0 mph 94% 0.00 in 0.00 W/m2
21:58 31.4 °F 29.9 °F 30.12 in ESE 9.0 mph 18.0 mph 94% 0.00 in 0.00 W/m2
22:03 31.4 °F 29.9 °F 30.12 in East 11.0 mph 14.0 mph 94% 0.00 in 0.00 W/m2
22:08 31.4 °F 29.6 °F 30.12 in ESE 6.0 mph 16.0 mph 93% 0.00 in 0.00 W/m2
22:13 31.3 °F 29.5 °F 30.13 in East 4.0 mph 15.0 mph 93% 0.00 in 0.00 W/m2
22:18 31.4 °F 29.6 °F 30.13 in East 4.0 mph 13.0 mph 93% 0.00 in 0.00 W/m2
22:23 31.4 °F 29.4 °F 30.13 in East 5.0 mph 15.0 mph 92% 0.00 in 0.00 W/m2
22:28 31.5 °F 29.2 °F 30.12 in East 9.0 mph 13.0 mph 91% 0.00 in 0.00 W/m2
22:33 31.6 °F 29.3 °F 30.12 in East 5.0 mph 16.0 mph 91% 0.00 in 0.00 W/m2
22:38 31.6 °F 29.3 °F 30.12 in East 8.0 mph 15.0 mph 91% 0.00 in 0.00 W/m2
22:43 31.6 °F 29.0 °F 30.12 in East 12.0 mph 15.0 mph 90% 0.00 in 0.00 W/m2
22:48 31.7 °F 29.1 °F 30.12 in ESE 4.0 mph 15.0 mph 90% 0.00 in 0.00 W/m2
22:54 31.7 °F 29.1 °F 30.12 in ESE 15.0 mph 15.0 mph 90% 0.00 in 0.00 W/m2
22:59 31.7 °F 29.1 °F 30.13 in East 14.0 mph 14.0 mph 90% 0.00 in 0.00 W/m2
23:04 31.7 °F 29.1 °F 30.13 in East 9.0 mph 14.0 mph 90% 0.00 in 0.00 W/m2
23:09 31.8 °F 29.2 °F 30.13 in East 14.0 mph 16.0 mph 90% 0.00 in 0.00 W/m2
23:14 31.7 °F 29.1 °F 30.13 in ESE 5.0 mph 18.0 mph 90% 0.00 in 0.00 W/m2
23:19 31.7 °F 29.1 °F 30.13 in East 7.0 mph 15.0 mph 90% 0.00 in 0.00 W/m2
23:24 31.7 °F 28.8 °F 30.13 in East 12.0 mph 15.0 mph 89% 0.00 in 0.00 W/m2
23:29 31.6 °F 28.7 °F 30.13 in East 12.0 mph 15.0 mph 89% 0.00 in 0.00 W/m2
23:34 31.6 °F 28.7 °F 30.13 in East 4.0 mph 15.0 mph 89% 0.00 in 0.00 W/m2
23:39 31.6 °F 28.7 °F 30.13 in East 14.0 mph 16.0 mph 89% 0.00 in 0.00 W/m2
23:44 31.6 °F 28.7 °F 30.14 in ESE 8.0 mph 16.0 mph 89% 0.00 in 0.00 W/m2
23:49 31.6 °F 28.5 °F 30.14 in East 5.0 mph 13.0 mph 88% 0.00 in 0.00 W/m2
23:54 31.6 °F 28.5 °F 30.14 in East 2.0 mph 14.0 mph 88% 0.00 in 0.00 W/m2
23:59 31.6 °F 28.2 °F 30.14 in East 13.0 mph 15.0 mph 87% 0.00 in 0.00 W/m2
Foresthill Weather
 WU-history PHP script courtesy of   Juneau County Weather.
powered by Cumulus v1.9.3 (1059)
Ambient Weather VWS v14.00
Top Contact Website Map Copyright © 2007 - 2018 Foresthillweather.com Never base important decisions on this or any weather information obtained from the Internet